Wednesday, December 12, 2018, 10:55 PM EST
Back to Local

KGTB, Fort Drum / Wheeler-sack U. S. Army Airfield

Location: Fort Drum, NY, United States Lat: 44.05
Local Time: 10:55 PM EST ( 3:55 GMT) Lon: -75.733
Time Zone: US/Eastern Elev: 679 ft

Show me the last for .
Show Coded

Time T Td Feel RH Dir Speed Gust Alt SLP Vis Weather Sky Remarks
2018-12-12 21:56 8 4 -3 83 80° 7 - 30.19 30.23 10 CLR None
2018-12-12 20:56 13 10 - 85 - Calm - 30.19 30.23 10 CLR None
2018-12-12 19:56 13 9 2 84 60° 7 - 30.19 30.23 10 CLR None
2018-12-12 18:56 19 14 13 80 100° 3 - 30.19 30.22 10 CLR Snow depth: 13"
6-hr Min Temp (7pm): 18.3°F
6-hr Max Temp (7pm): 23.2°F
2018-12-12 18:06 21 16 6 79 80° 12 20 30.16 30.19 10 SCT015 None
2018-12-12 17:56 21 16 9 79 70° 13 - 30.16 30.19 10 BKN015 None
2018-12-12 16:56 22 17 18 78 110° 3 - 30.18 30.21 10 OVC014 None
2018-12-12 15:56 23 17 - 75 - Calm - 30.17 30.20 10 OVC013 None
2018-12-12 14:56 23 17 19 77 70° 3 - 30.16 30.19 10 OVC013 None
2018-12-12 13:56 23 17 16 78 80° 6 - 30.13 30.16 10 OVC011 None
2018-12-12 12:56 23 18 15 80 30° 7 - 30.12 30.15 10 OVC013 Snow depth: 13"
6-hr Min Temp (1pm): 21.0°F
6-hr Max Temp (1pm): 23.7°F
2018-12-12 12:16 23 18 16 79 70° 6 - 30.11 30.14 10 SCT010 OVC017 None
2018-12-12 11:56 23 18 18 80 50° 3 - 30.12 30.15 10 OVC010 None
2018-12-12 11:26 23 18 18 79 30° 3 - 30.13 30.16 10 OVC009 None
2018-12-12 10:56 22 18 17 83 40° 3 - 30.14 30.17 10 OVC008 None
2018-12-12 10:36 21 18 15 85 340° 5 - 30.14 30.17 10 OVC008 None
2018-12-12 10:26 21 18 15 85 20° 5 - 30.14 30.17 10 OVC007 None
2018-12-12 09:56 22 17 17 83 30° 3 - 30.13 30.16 10 BKN008 OVC019 None
2018-12-12 09:46 21 18 15 85 10° 5 - 30.13 30.16 10 BKN008 OVC019 None
2018-12-12 09:16 21 18 15 85 20° 5 - 30.12 30.15 10 SCT008 OVC019 None
2018-12-12 08:56 21 18 14 85 20° 6 - 30.12 30.15 10 BKN008 OVC021 None
2018-12-12 08:52 21 18 14 85 30° 6 - 30.12 30.15 10 BKN008 OVC021 None
2018-12-12 08:47 21 18 15 85 20° 5 - 30.11 30.14 10 BKN009 OVC021 None
2018-12-12 08:37 21 18 12 85 20° 8 - 30.11 30.14 10 SCT008 OVC020 None
2018-12-12 08:27 21 18 14 85 20° 6 - 30.11 30.14 10 BKN008 OVC020 None
2018-12-12 08:26 21 18 14 85 20° 6 - 30.11 30.14 10 OVC009 None
2018-12-12 08:06 21 18 14 85 360° 6 - 30.11 30.14 10 OVC007 None
2018-12-12 07:56 21 18 14 87 10° 6 - 30.10 30.13 10 OVC006 None
2018-12-12 07:26 23 19 17 85 360° 5 - 30.09 30.12 6 BR OVC006 None
2018-12-12 07:16 23 19 17 85 350° 5 - 30.09 30.12 7 BKN007 OVC016 Pressure rising rapidly
2018-12-12 06:56 22 20 16 89 350° 5 - 30.07 30.10 7 BKN006 OVC015 6-hr Precip Total (7am): 0.00"
Snow depth: 13"
6-hr Min Temp (7am): 22.5°F
6-hr Max Temp (7am): 25.9°F
2018-12-12 06:36 23 19 17 85 350° 5 - 30.06 30.09 8 OVC005 None
2018-12-12 06:16 23 21 16 92 350° 6 - 30.05 30.08 7 OVC006 None
2018-12-12 05:56 24 21 16 89 360° 7 - 30.05 30.08 8 OVC005 1-hr Precip Total: Trace
2018-12-12 05:46 25 21 18 85 360° 6 - 30.04 30.07 6 BR OVC003 None
2018-12-12 05:26 25 23 17 92 360° 7 - 30.04 30.07 5 BR OVC002 None
2018-12-12 05:01 25 23 19 92 350° 5 - 30.03 30.06 4 -UP BR OVC002 None
2018-12-12 04:56 24 22 18 92 340° 5 - 30.03 30.06 4 BR OVC002 None
2018-12-12 04:46 25 23 18 92 330° 6 - 30.03 30.06 4 BR OVC002 Pressure rising rapidly
2018-12-12 04:26 25 23 20 92 310° 3 - 30.01 30.04 5 BR OVC003 None
2018-12-12 04:16 25 23 20 92 310° 3 - 30.01 30.04 5 BR OVC005 None
2018-12-12 04:06 25 23 - 92 - Calm - 30.01 30.04 5 BR OVC007 None
2018-12-12 03:56 25 23 - 92 - Calm - 30.00 30.03 6 BR OVC008 1-hr Precip Total: Trace
6-hr Precip Total (4am): 0.00"
2018-12-12 03:42 25 23 20 92 290° 3 - 30.00 30.03 6 BR BKN008 OVC070 None
2018-12-12 03:34 23 21 18 92 280° 3 - 30.00 30.03 5 BR BKN009 OVC070 None
2018-12-12 03:24 23 21 18 92 280° 3 - 29.99 30.02 4 BR SCT009 OVC070 None
2018-12-12 03:14 23 21 - 92 - Calm - 29.99 30.02 2 BR OVC070 Variable visibility
2018-12-12 03:04 23 21 - 92 - Calm - 29.98 30.01 3 BR OVC070 None
2018-12-12 02:56 24 22 - 92 - Calm - 29.98 - 4 -UP BR OVC070 1-hr Precip Total: Trace
2018-12-12 02:52 25 23 - 92 - Calm - 29.98 - 5 -UP BR OVC070 None
2018-12-12 01:56 25 22 - 90 - Calm - 29.97 - 5 BR OVC075 None
2018-12-12 01:16 25 23 20 92 290° 3 - 29.95 - 7 FEW002 SCT025 OVC075 None
2018-12-12 00:56 26 24 21 92 270° 3 - 29.95 - 5 BR SCT002 BKN025 6-hr Precip Total (1am): 0.00"
Snow depth: 13"
6-hr Min Temp (1am): 24.4°F
6-hr Max Temp (1am): 27.3°F
2018-12-12 00:47 25 23 19 92 270° 5 - 29.95 - 5 BR BKN002 BKN028 None
2018-12-12 00:37 25 23 18 92 270° 6 - 29.95 - 5 BR FEW002 BKN029 BKN075 None
2018-12-12 00:36 25 23 18 92 270° 6 - 29.95 - 5 BR BKN029 BKN075 None
2018-12-11 23:56 26 23 20 90 270° 5 - 29.94 - 6 BR OVC070 24-hr Min Temp (12am): 24.4°F
24-hr Max Temp (12am): 28.4°F
2018-12-11 22:56 26 23 20 90 260° 5 - 29.94 - 6 BR OVC070 1-hr Precip Total: Trace

Support USWX by starting your Amazon purchase here.